Bavaria

Go HERE for most recent data if this page is not up to date.

Jump to table bottom
Date Time Temp F RH % AVG Wind Max Wind Wind Dir 24 Snow Depth
*04/10/21 13 33.5 37 17 24 SW - 242 -0.0 71.6
*04/10/21 12 32.5 34 18 28 W - 253 -0.1 71.9
*04/10/21 11 32.3 33 17 27 SW - 229 -0.0 72.1
*04/10/21 10 30.7 32 20 28 W - 267 0.0 72.1
*04/10/21 09 29.2 32 21 30 SW - 230 0.0 72.2
*04/10/21 08 27.8 33 19 30 W - 257 0.0 72.4
*04/10/21 07 26.9 34 16 28 SW - 222 0.2 72.3
*04/10/21 06 25.8 39 13 22 W - 253 0.1 72.0
*04/10/21 05 24.6 42 13 19 SW - 243 0.1 72.0
*04/10/21 04 25.3 42 15 26 W - 252 0.1 71.9
*04/10/21 03 26.2 40 15 23 W - 256 0.1 72.2
*04/10/21 02 26.6 39 13 20 SW - 234 0.1 71.9
*04/10/21 01 26.9 40 7 19 W - 262 0.2 72.0
*04/10/21 00 24.2 46 5 9 SW - 218 0.2 71.7
*04/09/21 23 25.2 46 9 19 SW - 245 0.0 71.8
*04/09/21 22 26.3 43 11 17 W - 257 0.2 71.6
*04/09/21 21 26.2 45 12 19 SW - 244 0.2 71.7
*04/09/21 20 25.2 50 11 22 SW - 233 0.0 71.6
*04/09/21 19 29.0 43 11 16 SW - 207 -0.0 71.6
*04/09/21 18 28.9 42 10 19 W - 255 -0.0 71.5
*04/09/21 17 28.6 37 9 18 SW - 243 -0.1 71.8
*04/09/21 16 27.5 36 8 14 SW - 244 -0.2 72.2
*04/09/21 15 28.1 33 8 15 W - 264 -0.2 72.8
*04/09/21 14 30.5 32 5 11 SW - 219 2.1 151.3
*04/09/21 13 24.0 30 5 10 W - 278 2.8 151.3
*04/09/21 12 24.5 32 7 15 SW - 212 3.8 151.3
*04/09/21 11 16.9 42 6 12 W - 258 4.6 76.1
*04/09/21 10 13.8 54 5 13 W - 257 5.0 76.2
*04/09/21 09 13.8 61 5 10 W - 276 5.2 76.0
*04/09/21 08 11.1 77 4 9 W - 270 5.2 76.1
*04/09/21 07 5.7 82 6 9 NW - 295 5.4 76.3
*04/09/21 06 6.4 83 5 9 NW - 313 5.5 76.2
*04/09/21 05 8.0 84 2 6 NW - 307 5.7 -10.5
*04/09/21 04 8.7 84 2 5 SE - 129 5.9 -10.6
*04/09/21 03 9.3 84 2 6 E - 68 5.5 -10.7
*04/09/21 02 9.7 85 3 9 E - 88 5.3 -10.6
*04/09/21 01 9.8 85 4 10 S - 182 5.2 76.2
*04/09/21 00 9.7 85 4 9 NE - 56 5.4 77.5
.